createdAt,value
2022-12-06T05:11:03.636Z,15.90
2022-12-06T05:13:31.085Z,15.43
2022-12-06T05:16:01.146Z,16.85
2022-12-06T05:18:29.832Z,16.77
2022-12-06T05:21:09.362Z,15.40
2022-12-06T05:23:37.386Z,13.88
2022-12-06T05:26:08.295Z,13.55
2022-12-06T05:28:35.562Z,13.90
2022-12-06T05:31:03.320Z,12.95
2022-12-06T05:33:30.721Z,13.55
2022-12-06T05:35:58.623Z,12.70
2022-12-06T05:38:25.906Z,13.60
2022-12-06T05:40:53.172Z,12.25
2022-12-06T05:43:20.453Z,13.80
2022-12-06T05:45:53.608Z,14.35
2022-12-06T05:48:21.000Z,13.77
2022-12-06T05:50:49.654Z,13.00
2022-12-06T05:53:17.990Z,14.98
2022-12-06T05:55:45.459Z,13.93
2022-12-06T05:58:13.678Z,12.35
2022-12-06T06:00:41.684Z,13.38
2022-12-06T06:03:09.070Z,12.68
2022-12-06T06:05:36.479Z,12.52
2022-12-06T06:08:04.545Z,13.65
2022-12-06T06:10:32.266Z,14.23
2022-12-06T06:12:59.560Z,14.40
2022-12-06T06:15:27.378Z,14.57
2022-12-06T06:17:54.685Z,14.00
2022-12-06T06:20:21.955Z,13.75
2022-12-06T06:22:49.251Z,14.48
2022-12-06T06:25:16.595Z,12.68
2022-12-06T06:27:43.905Z,13.73
2022-12-06T06:30:13.458Z,13.30
2022-12-06T06:32:41.532Z,12.35
2022-12-06T06:35:09.268Z,12.27
2022-12-06T06:37:36.684Z,12.85
2022-12-06T06:40:04.449Z,12.43
2022-12-06T06:42:32.150Z,11.52
2022-12-06T06:44:59.427Z,10.90
2022-12-06T06:47:26.687Z,11.15
2022-12-06T06:49:53.935Z,11.98
2022-12-06T06:52:21.165Z,12.13
2022-12-06T06:54:48.902Z,13.98
2022-12-06T06:57:18.007Z,13.43
2022-12-06T06:59:46.426Z,12.95
2022-12-06T07:02:14.907Z,14.43
2022-12-06T07:04:42.468Z,14.43
2022-12-06T07:07:11.948Z,14.25
2022-12-06T07:09:41.932Z,13.85
2022-12-06T07:12:09.679Z,13.98
2022-12-06T07:14:37.165Z,14.02
2022-12-06T07:17:04.871Z,13.77
2022-12-06T07:19:32.173Z,15.52
2022-12-06T07:21:59.616Z,14.52
2022-12-06T07:24:27.429Z,13.88
2022-12-06T07:26:56.938Z,14.57
2022-12-06T07:29:24.269Z,14.88
2022-12-06T07:31:52.551Z,13.95
2022-12-06T07:34:19.947Z,13.75
2022-12-06T07:36:47.209Z,14.00
2022-12-06T07:39:15.178Z,13.45
2022-12-06T07:42:00.857Z,15.13
2022-12-06T07:45:05.488Z,14.45
2022-12-06T07:47:41.948Z,14.88
2022-12-06T07:50:17.909Z,15.55
2022-12-06T07:52:47.890Z,23.08
2022-12-06T07:55:16.465Z,17.88
2022-12-06T07:57:44.747Z,17.73
2022-12-06T08:00:15.559Z,17.75
2022-12-06T08:02:43.358Z,17.00
2022-12-06T08:05:11.230Z,16.65
2022-12-06T08:07:39.684Z,16.30
2022-12-06T08:10:07.651Z,16.20
2022-12-06T08:12:35.362Z,16.42
2022-12-06T08:15:02.839Z,17.20
2022-12-06T08:17:30.951Z,18.50
2022-12-06T08:19:58.948Z,20.80
2022-12-06T08:22:28.112Z,23.83
2022-12-06T08:24:55.842Z,26.35
2022-12-06T08:27:23.230Z,29.35
2022-12-06T08:29:50.539Z,27.48
2022-12-06T08:32:17.890Z,27.17
2022-12-06T08:34:45.247Z,29.60
2022-12-06T08:37:12.643Z,29.23
2022-12-06T08:39:40.368Z,29.95
2022-12-06T08:42:08.136Z,27.83
2022-12-06T08:44:36.447Z,22.35
2022-12-06T08:47:04.534Z,19.88
2022-12-06T08:49:32.388Z,20.48
2022-12-06T08:52:00.271Z,22.63
2022-12-06T08:54:28.530Z,23.83
2022-12-06T08:56:55.997Z,24.63
2022-12-06T08:59:24.118Z,23.23
2022-12-06T09:01:52.266Z,24.40
2022-12-06T09:04:20.222Z,23.60
2022-12-06T09:06:47.894Z,24.92
2022-12-06T09:09:17.555Z,25.98
2022-12-06T09:11:45.987Z,26.00
2022-12-06T09:14:21.619Z,28.10
2022-12-06T09:16:50.595Z,26.20
2022-12-06T09:19:19.519Z,27.05
2022-12-06T09:21:47.336Z,27.70
2022-12-06T09:24:16.830Z,27.98
2022-12-06T09:26:44.604Z,29.92
2022-12-06T09:29:13.322Z,29.33
2022-12-06T09:31:41.024Z,28.38
2022-12-06T09:34:10.334Z,29.13
2022-12-06T09:36:55.039Z,29.52
2022-12-06T09:39:32.926Z,31.63
2022-12-06T09:42:18.405Z,30.90
2022-12-06T09:45:09.303Z,30.15
2022-12-06T09:47:55.356Z,29.13
2022-12-06T09:50:50.645Z,29.20
2022-12-06T09:53:45.965Z,26.50
2022-12-06T09:56:31.134Z,26.92
2022-12-06T09:59:19.951Z,25.65
2022-12-06T10:02:25.197Z,26.52
2022-12-06T10:05:19.816Z,25.25
2022-12-06T10:08:01.043Z,25.25
2022-12-06T10:10:58.051Z,27.08
2022-12-06T10:13:47.275Z,26.45
2022-12-06T10:16:40.965Z,25.38
2022-12-06T10:19:47.036Z,23.63
2022-12-06T10:22:29.506Z,21.50
2022-12-06T10:25:23.810Z,22.38
2022-12-06T10:28:04.996Z,22.95
2022-12-06T10:30:36.800Z,22.33
2022-12-06T10:33:15.636Z,22.45
2022-12-06T10:35:50.582Z,22.50
2022-12-06T10:38:27.541Z,20.73
2022-12-06T10:41:14.988Z,19.85
2022-12-06T10:43:58.609Z,20.65
2022-12-06T10:46:57.196Z,24.73
2022-12-06T10:49:36.761Z,23.55
2022-12-06T10:52:32.634Z,24.45
2022-12-06T10:55:09.435Z,24.75
2022-12-06T10:57:57.346Z,24.52
2022-12-06T11:00:27.433Z,24.52
2022-12-06T11:03:23.003Z,26.83
2022-12-06T11:05:55.324Z,25.65
2022-12-06T11:08:32.367Z,27.77
2022-12-06T11:11:01.439Z,28.35
2022-12-06T11:13:47.962Z,28.35
2022-12-06T11:16:45.247Z,27.80
2022-12-06T11:19:27.079Z,27.42
2022-12-06T11:22:01.398Z,27.70
2022-12-06T11:24:32.106Z,28.23
2022-12-06T11:27:34.690Z,28.92
2022-12-06T11:30:13.668Z,30.30
2022-12-06T11:32:46.548Z,29.27
2022-12-06T11:35:18.659Z,29.23
2022-12-06T11:37:47.004Z,29.20
2022-12-06T11:40:17.952Z,28.67
2022-12-06T11:42:45.522Z,30.38
2022-12-06T11:45:21.898Z,28.50
2022-12-06T11:47:49.319Z,27.90
2022-12-06T11:50:20.224Z,27.63
2022-12-06T11:52:53.387Z,26.30
2022-12-06T11:55:27.678Z,27.38
2022-12-06T11:58:07.064Z,27.20
2022-12-06T12:00:35.145Z,27.48
2022-12-06T12:03:02.555Z,28.13
2022-12-06T12:05:38.802Z,30.90
2022-12-06T12:08:18.375Z,26.95
2022-12-06T12:11:01.503Z,26.25
2022-12-06T12:13:45.224Z,25.85
2022-12-06T12:16:18.473Z,25.25
2022-12-06T12:18:53.698Z,25.25
2022-12-06T12:21:33.654Z,24.27
2022-12-06T12:24:01.209Z,25.23
2022-12-06T12:26:37.808Z,25.52
2022-12-06T12:29:07.825Z,26.23
2022-12-06T12:31:54.838Z,24.73
2022-12-06T12:34:24.626Z,24.00
2022-12-06T12:36:56.078Z,23.15
2022-12-06T12:39:41.136Z,23.38
2022-12-06T12:42:26.944Z,22.85
2022-12-06T12:44:59.368Z,21.63
2022-12-06T12:47:27.153Z,24.65
2022-12-06T12:50:18.595Z,24.90
2022-12-06T12:52:46.463Z,24.05
2022-12-06T12:55:27.244Z,21.50
2022-12-06T12:58:01.138Z,21.42
2022-12-06T13:00:41.867Z,20.52
2022-12-06T13:03:49.559Z,19.23
2022-12-06T13:06:07.474Z,18.95
2022-12-06T13:08:37.991Z,18.13
2022-12-06T13:11:06.202Z,18.10
2022-12-06T13:13:50.635Z,14.55
2022-12-06T13:16:28.090Z,13.98
2022-12-06T13:18:58.827Z,13.63
2022-12-06T13:21:35.010Z,13.63
2022-12-06T13:24:11.404Z,12.70
2022-12-06T13:27:14.041Z,12.57
2022-12-06T13:29:52.002Z,14.20
2022-12-06T13:32:44.425Z,13.73
2022-12-06T13:35:21.401Z,14.35
2022-12-06T13:37:57.838Z,12.60
2022-12-06T13:40:33.902Z,13.65
2022-12-06T13:43:03.524Z,12.27
2022-12-06T13:45:47.108Z,12.90
2022-12-06T13:48:27.002Z,12.55
2022-12-06T13:50:58.412Z,12.48
2022-12-06T13:53:27.845Z,12.93
2022-12-06T13:56:00.674Z,12.95
2022-12-06T13:58:28.441Z,12.05
2022-12-06T14:00:57.713Z,13.00
2022-12-06T14:03:25.284Z,15.23
2022-12-06T14:06:02.061Z,12.10
2022-12-06T14:08:38.954Z,13.77
2022-12-06T14:11:07.968Z,17.05
2022-12-06T14:13:35.650Z,14.13
2022-12-06T14:16:06.087Z,12.40
2022-12-06T14:18:34.615Z,12.23
2022-12-06T14:21:02.760Z,13.65
2022-12-06T14:23:31.362Z,12.18
2022-12-06T14:26:15.681Z,12.30
2022-12-06T14:28:43.274Z,13.15
2022-12-06T14:31:37.971Z,12.13
2022-12-06T14:34:05.615Z,12.95
2022-12-06T14:36:40.201Z,13.55
2022-12-06T14:39:12.454Z,11.82
2022-12-06T14:41:59.027Z,12.00
2022-12-06T14:44:32.377Z,12.02
2022-12-06T14:47:00.354Z,11.80
2022-12-06T14:50:06.703Z,11.95
2022-12-06T14:52:34.114Z,11.90
2022-12-06T14:55:19.435Z,16.58
2022-12-06T14:57:49.979Z,12.65
2022-12-06T15:00:26.555Z,12.95
2022-12-06T15:03:13.185Z,12.95
2022-12-06T15:05:43.916Z,15.77
2022-12-06T15:08:42.411Z,18.70
2022-12-06T15:11:09.763Z,16.50
2022-12-06T15:13:38.251Z,15.27
2022-12-06T15:16:08.674Z,17.05
2022-12-06T15:18:45.810Z,14.10
2022-12-06T15:21:17.379Z,14.38
2022-12-06T15:23:57.651Z,15.15
2022-12-06T15:26:25.256Z,17.65
2022-12-06T15:28:52.641Z,30.00
2022-12-06T15:31:22.925Z,25.67
2022-12-06T15:33:50.754Z,17.35
2022-12-06T15:36:22.648Z,18.48
2022-12-06T15:41:21.131Z,14.30
2022-12-06T15:43:49.303Z,15.98
2022-12-06T15:46:20.231Z,17.17
2022-12-06T15:48:47.654Z,21.43
2022-12-06T15:51:24.748Z,18.50
2022-12-06T15:53:54.418Z,20.10
2022-12-06T15:56:24.933Z,18.25
2022-12-06T15:58:52.739Z,17.75
2022-12-06T16:01:24.649Z,19.20
2022-12-06T16:06:23.642Z,24.60
2022-12-06T16:08:52.021Z,28.30
2022-12-06T16:11:21.700Z,31.48
2022-12-06T16:13:50.405Z,35.53
2022-12-06T16:16:20.362Z,36.42
2022-12-06T16:18:48.798Z,49.88
2022-12-06T16:21:53.008Z,47.35
2022-12-06T16:24:20.748Z,45.63
2022-12-06T16:26:49.146Z,43.80
2022-12-06T16:29:20.678Z,37.58
2022-12-06T16:31:48.190Z,33.08
2022-12-06T16:34:15.898Z,30.58
2022-12-06T16:37:09.103Z,35.33
2022-12-06T16:39:36.410Z,30.40
2022-12-06T16:42:04.854Z,32.17
2022-12-06T16:44:32.170Z,29.75
2022-12-06T16:46:59.755Z,29.98
2022-12-06T16:49:45.799Z,32.78
2022-12-06T16:52:15.103Z,43.10
2022-12-06T16:54:42.849Z,43.58
2022-12-06T16:57:14.467Z,32.78
2022-12-06T16:59:43.188Z,28.48
2022-12-06T17:02:27.556Z,28.40
2022-12-06T17:04:56.796Z,28.50
2022-12-06T17:07:24.593Z,31.15
2022-12-06T17:09:52.788Z,29.25
2022-12-06T17:12:20.142Z,30.95
2022-12-06T17:14:47.630Z,30.15
2022-12-06T17:17:18.002Z,29.95
2022-12-06T17:19:45.590Z,36.05
2022-12-06T17:22:16.408Z,31.95
2022-12-06T17:24:44.052Z,30.42
2022-12-06T17:27:14.392Z,31.52
2022-12-06T17:29:43.485Z,29.25
2022-12-06T17:32:11.841Z,23.55
2022-12-06T17:34:39.748Z,27.42
2022-12-06T17:37:07.550Z,28.20
2022-12-06T17:39:35.195Z,27.55
2022-12-06T17:42:21.276Z,26.60
2022-12-06T17:44:50.518Z,27.55
2022-12-06T17:47:19.317Z,26.05
2022-12-06T17:49:47.147Z,25.65
2022-12-06T17:52:15.450Z,24.92
2022-12-06T17:54:43.354Z,31.05
2022-12-06T17:57:17.107Z,38.50
2022-12-06T17:59:48.425Z,39.58
2022-12-06T18:02:18.841Z,52.60
2022-12-06T18:04:47.674Z,44.13
2022-12-06T18:07:16.554Z,40.75
2022-12-06T18:09:44.696Z,42.75
2022-12-06T18:12:14.724Z,36.55
2022-12-06T18:14:42.997Z,45.67
2022-12-06T18:17:11.300Z,53.30
2022-12-06T18:19:40.417Z,30.70
2022-12-06T18:22:08.232Z,33.90
2022-12-06T18:24:36.488Z,34.65
2022-12-06T18:27:05.003Z,28.65
2022-12-06T18:29:32.500Z,28.90
2022-12-06T18:31:59.792Z,28.20
2022-12-06T18:34:27.266Z,29.15
2022-12-06T18:36:54.556Z,34.65
2022-12-06T18:39:25.209Z,49.85
2022-12-06T18:41:53.953Z,42.65
2022-12-06T18:44:22.802Z,35.22
2022-12-06T18:46:50.299Z,50.78
2022-12-06T18:49:17.625Z,37.67
2022-12-06T18:51:45.039Z,32.75
2022-12-06T18:54:13.891Z,28.58
2022-12-06T18:56:42.483Z,28.58
2022-12-06T18:59:11.979Z,27.90
2022-12-06T19:01:40.888Z,28.60
2022-12-06T19:04:14.314Z,28.77
2022-12-06T19:06:43.223Z,28.20
2022-12-06T19:09:13.125Z,28.42
2022-12-06T19:11:44.233Z,30.65
2022-12-06T19:14:12.438Z,33.13
2022-12-06T19:16:44.299Z,30.52
2022-12-06T19:19:19.952Z,25.40
2022-12-06T19:21:49.155Z,35.30
2022-12-06T19:24:20.229Z,31.70
2022-12-06T19:26:50.466Z,27.75
2022-12-06T19:29:18.838Z,24.83
2022-12-06T19:31:46.174Z,30.15
2022-12-06T19:34:16.570Z,38.60
2022-12-06T19:36:44.357Z,25.75
2022-12-06T19:39:13.964Z,20.45
2022-12-06T19:42:00.562Z,20.92
2022-12-06T19:44:29.191Z,28.67
2022-12-06T19:46:57.101Z,53.97
2022-12-06T19:49:26.655Z,20.95
2022-12-06T19:51:54.311Z,21.98
2022-12-06T19:54:27.928Z,22.95
2022-12-06T19:56:57.092Z,20.27
2022-12-06T19:59:26.936Z,23.77
2022-12-06T20:01:54.747Z,23.98
2022-12-06T20:04:24.178Z,31.05
2022-12-06T20:06:52.887Z,21.08
2022-12-06T20:09:23.717Z,31.10
2022-12-06T20:12:03.268Z,21.47
2022-12-06T20:14:42.335Z,23.75
2022-12-06T20:17:12.724Z,21.17
2022-12-06T20:19:46.181Z,22.45
2022-12-06T20:22:14.927Z,22.90
2022-12-06T20:24:43.064Z,25.70
2022-12-06T20:27:11.105Z,22.17
2022-12-06T20:29:39.005Z,22.20
2022-12-06T20:32:06.552Z,28.15
2022-12-06T20:34:34.938Z,29.55
2022-12-06T20:37:05.142Z,33.25
2022-12-06T20:39:35.074Z,36.63
2022-12-06T20:42:03.457Z,37.67
2022-12-06T20:44:31.543Z,32.50
2022-12-06T20:47:00.196Z,35.95
2022-12-06T20:49:28.158Z,28.60
2022-12-06T20:51:56.657Z,24.27
2022-12-06T20:54:23.981Z,23.00
2022-12-06T20:56:53.106Z,21.23
2022-12-06T20:59:21.853Z,22.20
2022-12-06T21:01:49.896Z,32.53
2022-12-06T21:04:18.003Z,30.35
2022-12-06T21:06:45.258Z,28.13
2022-12-06T21:09:12.671Z,29.50
2022-12-06T21:11:40.271Z,29.02
2022-12-06T21:14:10.562Z,29.77
2022-12-06T21:16:38.391Z,31.42
2022-12-06T21:19:08.645Z,30.85
2022-12-06T21:21:38.299Z,32.60
2022-12-06T21:24:12.586Z,36.08
2022-12-06T21:26:40.427Z,26.92
2022-12-06T21:29:09.187Z,23.58
2022-12-06T21:31:38.201Z,18.35
2022-12-06T21:34:05.981Z,14.88
2022-12-06T21:36:33.936Z,14.15
2022-12-06T21:39:01.844Z,15.68
2022-12-06T21:41:29.238Z,18.45
2022-12-06T21:43:56.541Z,17.88
2022-12-06T21:46:25.811Z,16.13
2022-12-06T21:48:55.735Z,13.75
2022-12-06T21:51:25.152Z,13.98
2022-12-06T21:53:52.828Z,16.73
2022-12-06T21:56:26.547Z,15.80
2022-12-06T21:58:54.187Z,15.93
2022-12-06T22:01:24.789Z,16.80
2022-12-06T22:03:54.254Z,16.42
2022-12-06T22:06:22.738Z,18.17
2022-12-06T22:08:58.274Z,16.10
2022-12-06T22:11:27.110Z,16.35
2022-12-06T22:13:54.662Z,16.40
2022-12-06T22:16:23.229Z,15.13
2022-12-06T22:18:51.922Z,15.82
2022-12-06T22:21:21.929Z,15.23
2022-12-06T22:23:49.975Z,15.13
2022-12-06T22:26:20.162Z,15.88
2022-12-06T22:28:48.511Z,14.75
2022-12-06T22:31:19.895Z,13.68
2022-12-06T22:33:49.794Z,12.30
2022-12-06T22:36:19.894Z,12.20
2022-12-06T22:38:53.292Z,12.48
2022-12-06T22:41:21.745Z,12.85
2022-12-06T22:43:56.359Z,12.75
2022-12-06T22:46:26.414Z,14.50
2022-12-06T22:48:55.863Z,13.25
2022-12-06T22:51:25.930Z,13.07
2022-12-06T22:53:58.422Z,12.98
2022-12-06T22:56:26.461Z,13.52
2022-12-06T22:58:58.518Z,14.57
2022-12-06T23:01:29.805Z,14.07
2022-12-06T23:04:00.811Z,13.40
2022-12-06T23:06:31.372Z,14.90
2022-12-06T23:09:00.077Z,13.95
2022-12-06T23:11:32.697Z,19.90
2022-12-06T23:14:04.686Z,22.55
2022-12-06T23:16:33.593Z,25.65
2022-12-06T23:19:04.377Z,22.88
2022-12-06T23:21:36.787Z,18.92
2022-12-06T23:24:08.711Z,16.08
2022-12-06T23:29:23.456Z,12.27
2022-12-06T23:31:50.824Z,11.90
2022-12-06T23:34:26.460Z,12.52
2022-12-06T23:36:57.899Z,12.20
2022-12-06T23:39:25.615Z,12.85
2022-12-06T23:41:53.083Z,12.45
2022-12-06T23:44:22.990Z,12.55
2022-12-06T23:46:52.753Z,12.65
2022-12-06T23:49:21.947Z,14.23
2022-12-06T23:51:49.885Z,14.45
2022-12-06T23:54:18.133Z,12.43
2022-12-06T23:56:46.102Z,13.43
2022-12-06T23:59:14.820Z,12.52
